Disclaimer

Please do not use the information listed here in-flight or in-navigation, as they are not provided to us by the airports but are provided by volunteers, so they might be outdated.

Search


Regions


Airport information page

Radio informations:
HALIFAX RDO - SEEREMAR MHz
MONCTON CNTR - 123.9 MHz
MF - 123.0 MHz

Airport informations:
Latitude: 43° 49' 37.00" N
Longitude: 066° 05' 17.00" W
Elevation: 141 feet - 43 meters
Operating hours: 24 hour operations
Operating agency: Civil government, landing fees and diplomatic clearance may be required
Timezone: UTC-4(-3DT) - Second Sunday in March at 0200 to first Sunday in November at 0200 local time (Exception Arizona and that portion of Indiana in the Eastern Time Zone)
Fuel: Jet A1, without icing nhibitor.

100/130 MIL Spec, low lead, aviation gasoline (BLUE)

Runway information:
06/24 - 6000 x 150 feet< - >1829 x 46 meters
15/33 - 5000 x 150 feet< - >1524 x 46 meters

Recent METARs:
CYQI 190000Z VRB02KT 15SM OVC050 M01/M05 A3033 RMK SC8 SLP274
CYQI 190100Z VRB02KT 15SM BKN038 M01/M04 A3032 RMK SC7 SLP272
CYQI 190100Z VRB02KT 15SM BKN038 M01/M04 A3032 RMK SC7 SLP272

Airport on the map: